createdAt,value
2018-04-12T00:01:29.030Z,5.77
2018-04-12T00:03:57.368Z,6.47
2018-04-12T00:06:24.961Z,5.73
2018-04-12T00:08:53.318Z,5.60
2018-04-12T00:11:20.893Z,6.07
2018-04-12T00:13:48.450Z,6.07
2018-04-12T00:16:16.034Z,6.87
2018-04-12T00:18:43.597Z,6.40
2018-04-12T00:21:12.058Z,6.20
2018-04-12T00:23:39.617Z,5.13
2018-04-12T00:26:08.720Z,5.90
2018-04-12T00:28:36.313Z,6.40
2018-04-12T00:31:03.941Z,6.27
2018-04-12T00:33:31.538Z,6.27
2018-04-12T00:35:59.108Z,6.13
2018-04-12T00:38:26.861Z,6.57
2018-04-12T00:40:54.424Z,6.37
2018-04-12T00:43:22.039Z,6.10
2018-04-12T00:45:50.504Z,5.77
2018-04-12T00:48:18.147Z,6.43
2018-04-12T00:50:45.778Z,5.80
2018-04-12T00:53:13.485Z,6.57
2018-04-12T00:55:41.901Z,6.63
2018-04-12T00:58:09.582Z,6.37
2018-04-12T01:00:37.143Z,6.47
2018-04-12T01:03:04.736Z,6.07
2018-04-12T01:05:32.289Z,6.30
2018-04-12T01:07:59.861Z,7.00
2018-04-12T01:10:28.948Z,7.00
2018-04-12T01:12:56.512Z,5.87
2018-04-12T01:15:24.186Z,6.20
2018-04-12T01:17:51.734Z,6.30
2018-04-12T01:20:20.841Z,6.90
2018-04-12T01:22:48.397Z,6.93
2018-04-12T01:25:15.967Z,7.20
2018-04-12T01:27:44.463Z,6.80
2018-04-12T01:30:12.021Z,7.10
2018-04-12T01:32:39.589Z,6.80
2018-04-12T01:35:07.149Z,5.97
2018-04-12T01:37:34.809Z,6.63
2018-04-12T01:40:02.365Z,6.27
2018-04-12T01:42:30.070Z,6.77
2018-04-12T01:44:57.613Z,6.87
2018-04-12T01:47:25.169Z,6.80
2018-04-12T01:49:52.749Z,7.43
2018-04-12T01:52:20.309Z,6.07
2018-04-12T01:54:47.881Z,6.37
2018-04-12T01:57:15.449Z,6.13
2018-04-12T01:59:43.806Z,7.20
2018-04-12T02:02:11.404Z,7.10
2018-04-12T02:04:38.985Z,7.50
2018-04-12T02:07:06.582Z,7.07
2018-04-12T02:09:34.237Z,7.60
2018-04-12T02:12:01.788Z,6.57
2018-04-12T02:14:29.469Z,7.70
2018-04-12T02:16:57.788Z,7.57
2018-04-12T02:19:25.346Z,6.97
2018-04-12T02:21:52.929Z,7.30
2018-04-12T02:24:20.481Z,7.20
2018-04-12T02:26:48.127Z,6.93
2018-04-12T02:29:15.761Z,7.73
2018-04-12T02:31:44.114Z,7.70
2018-04-12T02:34:12.501Z,7.97
2018-04-12T02:36:40.921Z,7.67
2018-04-12T02:39:08.515Z,7.90
2018-04-12T02:41:36.102Z,7.27
2018-04-12T02:44:04.480Z,8.13
2018-04-12T02:46:32.850Z,8.00
2018-04-12T02:49:00.492Z,8.37
2018-04-12T02:51:28.081Z,8.17
2018-04-12T02:53:56.424Z,9.40
2018-04-12T02:56:24.022Z,8.43
2018-04-12T02:58:52.477Z,7.63
2018-04-12T03:01:20.030Z,7.67
2018-04-12T03:03:47.646Z,7.63
2018-04-12T03:06:15.377Z,8.50
2018-04-12T03:08:43.941Z,7.87
2018-04-12T03:11:12.328Z,8.13
2018-04-12T03:13:39.905Z,8.33
2018-04-12T03:16:08.320Z,8.27
2018-04-12T03:18:35.969Z,8.47
2018-04-12T03:21:03.556Z,9.33
2018-04-12T03:23:31.137Z,8.10
2018-04-12T03:25:59.563Z,8.47
2018-04-12T03:28:27.141Z,9.40
2018-04-12T03:30:54.841Z,9.20
2018-04-12T03:33:23.162Z,8.57
2018-04-12T03:35:50.749Z,9.00
2018-04-12T03:38:18.305Z,9.27
2018-04-12T03:40:45.901Z,9.50
2018-04-12T03:43:14.312Z,9.77
2018-04-12T03:45:41.911Z,9.50
2018-04-12T03:48:09.469Z,9.20
2018-04-12T03:50:37.098Z,8.77
2018-04-12T03:53:04.683Z,9.77
2018-04-12T03:55:32.233Z,9.33
2018-04-12T03:57:59.830Z,8.77
2018-04-12T04:00:28.199Z,8.80
2018-04-12T04:02:56.013Z,8.97
2018-04-12T04:05:23.575Z,8.50
2018-04-12T04:07:51.166Z,9.10
2018-04-12T04:10:18.777Z,8.57
2018-04-12T04:12:46.372Z,7.87
2018-04-12T04:15:25.826Z,8.73
2018-04-12T04:18:06.031Z,8.70
2018-04-12T04:20:45.464Z,8.13
2018-04-12T04:23:13.909Z,8.90
2018-04-12T04:25:41.482Z,9.03
2018-04-12T04:28:09.840Z,9.40
2018-04-12T04:30:38.177Z,10.33
2018-04-12T04:33:07.623Z,10.07
2018-04-12T04:35:35.221Z,9.03
2018-04-12T04:38:02.778Z,8.70
2018-04-12T04:40:30.360Z,9.20
2018-04-12T04:42:58.116Z,9.20
2018-04-12T04:45:25.722Z,8.97
2018-04-12T04:47:53.283Z,9.53
2018-04-12T04:50:21.637Z,9.40
2018-04-12T04:52:49.192Z,9.47
2018-04-12T04:55:16.926Z,9.60
2018-04-12T04:57:44.490Z,10.10
2018-04-12T05:00:12.093Z,9.27
2018-04-12T05:02:39.665Z,11.13
2018-04-12T05:05:08.003Z,10.30
2018-04-12T05:07:35.603Z,10.20
2018-04-12T05:10:03.961Z,9.90
2018-04-12T05:12:31.541Z,11.13
2018-04-12T05:14:59.883Z,11.33
2018-04-12T05:17:27.477Z,9.93
2018-04-12T05:19:55.839Z,11.13
2018-04-12T05:22:24.193Z,10.67
2018-04-12T05:24:51.758Z,10.83
2018-04-12T05:27:20.354Z,10.70
2018-04-12T05:29:48.006Z,11.10
2018-04-12T05:32:15.557Z,10.00
2018-04-12T05:34:43.158Z,10.03
2018-04-12T05:37:10.725Z,9.80
2018-04-12T05:39:38.290Z,12.30
2018-04-12T05:42:05.885Z,10.67
2018-04-12T05:44:33.489Z,11.47
2018-04-12T05:47:01.844Z,10.17
2018-04-12T05:49:29.443Z,11.33
2018-04-12T05:51:57.035Z,10.40
2018-04-12T05:54:24.629Z,10.53
2018-04-12T05:56:53.150Z,10.40
2018-04-12T05:59:20.729Z,10.87
2018-04-12T06:01:48.317Z,10.50
2018-04-12T06:04:16.041Z,11.90
2018-04-12T06:06:43.645Z,10.83
2018-04-12T06:09:12.090Z,11.60
2018-04-12T06:11:39.778Z,11.80
2018-04-12T06:14:07.525Z,11.03
2018-04-12T06:16:35.093Z,12.20
2018-04-12T06:19:02.761Z,12.00
2018-04-12T06:21:30.405Z,12.03
2018-04-12T06:23:58.007Z,11.90
2018-04-12T06:26:26.333Z,12.70
2018-04-12T06:28:54.017Z,10.60
2018-04-12T06:31:21.662Z,12.47
2018-04-12T06:33:49.303Z,11.73
2018-04-12T06:36:17.629Z,12.27
2018-04-12T06:38:45.961Z,12.57
2018-04-12T06:41:13.552Z,11.63
2018-04-12T06:43:41.142Z,12.30
2018-04-12T06:46:08.831Z,12.27
2018-04-12T06:48:36.489Z,11.67
2018-04-12T06:51:04.189Z,11.67
2018-04-12T06:53:31.758Z,12.93
2018-04-12T06:56:00.158Z,12.77
2018-04-12T06:58:27.767Z,12.60
2018-04-12T07:00:55.354Z,12.20
2018-04-12T07:03:23.820Z,12.63
2018-04-12T07:05:51.443Z,12.03
2018-04-12T07:08:19.029Z,13.20
2018-04-12T07:10:46.598Z,13.87
2018-04-12T07:13:14.209Z,12.53
2018-04-12T07:15:41.789Z,12.40
2018-04-12T07:18:09.584Z,12.90
2018-04-12T07:20:37.949Z,13.60
2018-04-12T07:23:05.512Z,11.30
2018-04-12T07:25:33.141Z,12.37
2018-04-12T07:28:00.715Z,12.33
2018-04-12T07:30:28.301Z,12.83
2018-04-12T07:32:56.009Z,13.83
2018-04-12T07:35:23.606Z,13.70
2018-04-12T07:37:51.162Z,13.70
2018-04-12T07:40:18.861Z,13.47
2018-04-12T07:42:47.194Z,13.40
2018-04-12T07:45:14.758Z,14.40
2018-04-12T07:47:42.346Z,14.27
2018-04-12T07:50:10.689Z,13.27
2018-04-12T07:52:38.295Z,14.67
2018-04-12T07:55:05.918Z,13.90
2018-04-12T07:57:33.536Z,13.33
2018-04-12T08:00:01.115Z,12.30
2018-04-12T08:02:28.722Z,12.03
2018-04-12T08:04:57.109Z,11.73
2018-04-12T08:07:25.453Z,10.70
2018-04-12T08:09:53.037Z,8.90
2018-04-12T08:12:21.419Z,10.33
2018-04-12T08:14:49.774Z,9.13
2018-04-12T08:17:17.346Z,7.30
2018-04-12T08:19:45.673Z,6.93
2018-04-12T08:22:13.423Z,4.47
2018-04-12T08:24:41.009Z,4.87
2018-04-12T08:27:08.597Z,5.43
2018-04-12T08:29:37.029Z,6.67
2018-04-12T08:32:04.616Z,5.83
2018-04-12T08:34:33.703Z,5.47
2018-04-12T08:37:01.282Z,5.47
2018-04-12T08:39:28.838Z,5.60
2018-04-12T08:41:56.430Z,5.17
2018-04-12T08:44:24.100Z,5.30
2018-04-12T08:46:52.599Z,4.67
2018-04-12T08:49:20.173Z,4.20
2018-04-12T08:51:47.876Z,3.20
2018-04-12T08:54:16.246Z,3.80
2018-04-12T08:56:44.617Z,2.83
2018-04-12T08:59:12.193Z,4.80
2018-04-12T09:01:40.513Z,3.47
2018-04-12T09:04:08.149Z,2.30
2018-04-12T09:06:35.741Z,2.80
2018-04-12T09:09:03.286Z,2.20
2018-04-12T09:11:30.933Z,3.27
2018-04-12T09:13:58.546Z,3.50
2018-04-12T09:16:26.152Z,2.73
2018-04-12T09:18:53.928Z,2.90
2018-04-12T09:21:21.514Z,2.30
2018-04-12T09:23:49.137Z,2.10
2018-04-12T09:26:16.814Z,2.83
2018-04-12T09:28:44.450Z,3.03
2018-04-12T09:31:12.029Z,2.30
2018-04-12T09:33:39.617Z,2.23
2018-04-12T09:36:07.195Z,2.00
2018-04-12T09:38:35.661Z,2.30
2018-04-12T09:41:03.228Z,1.73
2018-04-12T09:43:31.579Z,2.37
2018-04-12T09:45:59.146Z,1.70
2018-04-12T09:48:26.701Z,0.97
2018-04-12T09:50:54.324Z,1.40
2018-04-12T09:53:21.911Z,1.30
2018-04-12T09:55:49.472Z,1.40
2018-04-12T09:58:17.205Z,1.40
2018-04-12T10:00:50.522Z,0.97
2018-04-12T10:03:18.901Z,1.50
2018-04-12T10:05:52.043Z,1.40
2018-04-12T10:08:25.170Z,1.33
2018-04-12T10:10:52.761Z,1.30
2018-04-12T10:13:20.466Z,1.60
2018-04-12T10:15:48.128Z,1.10
2018-04-12T10:18:15.707Z,1.00
2018-04-12T10:20:43.265Z,1.10
2018-04-12T10:23:10.916Z,1.20
2018-04-12T10:25:38.465Z,1.40
2018-04-12T10:28:06.071Z,1.00
2018-04-12T10:30:33.627Z,1.70
2018-04-12T10:33:01.454Z,1.30
2018-04-12T10:35:29.109Z,1.40
2018-04-12T10:37:56.667Z,0.97
2018-04-12T10:40:24.273Z,1.30
2018-04-12T10:42:51.836Z,1.17
2018-04-12T10:45:19.413Z,1.10
2018-04-12T10:47:47.733Z,1.13
2018-04-12T10:50:15.449Z,0.90
2018-04-12T10:52:43.769Z,0.90
2018-04-12T10:55:11.509Z,1.20
2018-04-12T10:57:39.084Z,0.70
2018-04-12T11:00:06.678Z,0.57
2018-04-12T11:02:34.242Z,0.83
2018-04-12T11:05:01.827Z,0.80
2018-04-12T11:07:30.165Z,0.73
2018-04-12T11:09:57.806Z,0.97
2018-04-12T11:12:25.383Z,0.90
2018-04-12T11:14:52.976Z,0.93
2018-04-12T11:17:20.593Z,0.60
2018-04-12T11:19:48.258Z,0.87
2018-04-12T11:22:15.825Z,0.40
2018-04-12T11:24:43.421Z,0.80
2018-04-12T11:27:11.799Z,0.50
2018-04-12T11:29:39.422Z,0.80
2018-04-12T11:32:07.013Z,0.73
2018-04-12T11:34:35.371Z,0.70
2018-04-12T11:37:02.951Z,0.70
2018-04-12T11:39:31.329Z,0.80
2018-04-12T11:41:59.709Z,0.90
2018-04-12T11:44:27.312Z,0.70
2018-04-12T11:46:54.880Z,0.90
2018-04-12T11:49:22.465Z,0.73
2018-04-12T11:51:50.987Z,0.60
2018-04-12T11:54:18.569Z,0.77
2018-04-12T11:56:46.267Z,0.87
2018-04-12T11:59:13.954Z,0.70
2018-04-12T12:01:41.556Z,0.60
2018-04-12T12:04:09.129Z,0.90
2018-04-12T12:06:36.953Z,0.73
2018-04-12T12:09:04.502Z,0.63
2018-04-12T12:11:32.249Z,1.10
2018-04-12T12:14:00.602Z,1.00
2018-04-12T12:16:28.160Z,0.80
2018-04-12T12:18:55.763Z,0.73
2018-04-12T12:21:23.359Z,0.70
2018-04-12T12:23:51.186Z,0.57
2018-04-12T12:26:18.714Z,0.87
2018-04-12T12:28:47.163Z,0.80
2018-04-12T12:31:14.802Z,0.70
2018-04-12T12:33:42.430Z,0.70
2018-04-12T12:36:10.030Z,0.73
2018-04-12T12:38:37.601Z,0.73
2018-04-12T12:41:05.206Z,0.80
2018-04-12T12:43:32.769Z,0.80
2018-04-12T12:46:00.365Z,0.80
2018-04-12T12:48:28.024Z,0.80
2018-04-12T12:50:55.761Z,0.80
2018-04-12T12:53:23.324Z,0.80
2018-04-12T12:55:50.982Z,0.93
2018-04-12T12:58:19.277Z,0.90
2018-04-12T13:00:47.121Z,1.63
2018-04-12T13:03:14.701Z,1.10
2018-04-12T13:05:42.514Z,0.80
2018-04-12T13:08:10.990Z,0.90
2018-04-12T13:10:38.792Z,0.90
2018-04-12T13:13:06.406Z,1.00
2018-04-12T13:15:34.143Z,0.90
2018-04-12T13:18:01.879Z,1.07
2018-04-12T13:20:29.455Z,1.03
2018-04-12T13:22:57.183Z,1.20
2018-04-12T13:25:24.738Z,1.40
2018-04-12T13:27:52.458Z,0.87
2018-04-12T13:30:20.142Z,1.27
2018-04-12T13:32:48.495Z,1.30
2018-04-12T13:35:16.093Z,1.53
2018-04-12T13:37:43.721Z,0.90
2018-04-12T13:40:11.319Z,0.87
2018-04-12T13:42:38.912Z,1.10
2018-04-12T13:45:06.551Z,1.23
2018-04-12T13:47:34.122Z,1.00
2018-04-12T13:50:01.712Z,1.13
2018-04-12T13:52:29.302Z,1.30
2018-04-12T13:54:57.668Z,1.50
2018-04-12T13:57:25.996Z,1.30
2018-04-12T13:59:53.604Z,0.97
2018-04-12T14:02:21.941Z,1.77
2018-04-12T14:04:49.537Z,1.30
2018-04-12T14:07:17.869Z,1.37
2018-04-12T14:09:45.481Z,1.40
2018-04-12T14:12:13.833Z,1.00
2018-04-12T14:14:41.489Z,1.03
2018-04-12T14:17:09.103Z,0.70
2018-04-12T14:19:37.408Z,1.40
2018-04-12T14:22:05.009Z,1.30
2018-04-12T14:24:33.333Z,0.80
2018-04-12T14:27:00.963Z,1.10
2018-04-12T14:29:28.592Z,0.87
2018-04-12T14:31:56.149Z,1.10
2018-04-12T14:34:23.734Z,0.57
2018-04-12T14:36:51.470Z,0.60
2018-04-12T14:39:19.053Z,0.80
2018-04-12T14:41:46.766Z,0.50
2018-04-12T14:44:14.452Z,0.70
2018-04-12T14:46:42.156Z,0.50
2018-04-12T14:49:09.749Z,0.50
2018-04-12T14:51:37.341Z,0.50
2018-04-12T14:54:05.735Z,0.50
2018-04-12T14:56:33.297Z,0.40
2018-04-12T14:59:00.883Z,0.40
2018-04-12T15:01:28.493Z,0.40
2018-04-12T15:03:56.840Z,0.40
2018-04-12T15:06:24.501Z,0.50
2018-04-12T15:08:52.076Z,0.60
2018-04-12T15:11:19.656Z,0.43
2018-04-12T15:13:48.002Z,0.40
2018-04-12T15:16:15.785Z,0.40
2018-04-12T15:18:44.127Z,0.60
2018-04-12T15:21:11.744Z,0.53
2018-04-12T15:23:39.447Z,0.70
2018-04-12T15:26:07.021Z,1.03
2018-04-12T15:28:34.741Z,0.80
2018-04-12T15:31:02.368Z,0.50
2018-04-12T15:33:30.714Z,0.60
2018-04-12T15:35:58.394Z,0.60
2018-04-12T15:38:25.993Z,0.70
2018-04-12T15:40:53.669Z,0.60
2018-04-12T15:43:21.226Z,0.40
2018-04-12T15:45:48.991Z,0.60
2018-04-12T15:48:16.572Z,0.60
2018-04-12T15:50:44.202Z,0.63
2018-04-12T15:53:11.781Z,0.60
2018-04-12T15:55:39.390Z,0.40
2018-04-12T15:58:06.981Z,0.77
2018-04-12T16:00:34.633Z,0.70
2018-04-12T16:03:02.217Z,0.57
2018-04-12T16:05:29.811Z,0.50
2018-04-12T16:07:57.377Z,0.50
2018-04-12T16:10:25.750Z,0.60
2018-04-12T16:12:54.152Z,0.60
2018-04-12T16:15:21.777Z,0.50
2018-04-12T16:17:49.362Z,0.70
2018-04-12T16:20:17.724Z,0.73
2018-04-12T16:22:46.101Z,0.90
2018-04-12T16:25:14.421Z,0.60
2018-04-12T16:27:42.006Z,0.80
2018-04-12T16:30:09.600Z,0.70
2018-04-12T16:32:37.969Z,0.80
2018-04-12T16:35:05.577Z,0.63
2018-04-12T16:37:56.457Z,0.53
2018-04-12T16:40:27.080Z,0.80
2018-04-12T16:42:54.641Z,0.50
2018-04-12T16:45:22.262Z,0.77
2018-04-12T16:47:49.825Z,0.80
2018-04-12T16:50:17.607Z,0.60
2018-04-12T16:52:45.942Z,0.70
2018-04-12T16:55:13.556Z,1.20
2018-04-12T16:57:42.001Z,1.03
2018-04-12T17:00:09.569Z,0.70
2018-04-12T17:02:37.154Z,0.93
2018-04-12T17:05:04.721Z,0.90
2018-04-12T17:07:32.329Z,0.60
2018-04-12T17:09:59.924Z,2.03
2018-04-12T17:12:28.306Z,0.93
2018-04-12T17:14:56.651Z,0.73
2018-04-12T17:17:24.241Z,0.67
2018-04-12T17:19:52.689Z,1.00
2018-04-12T17:22:20.269Z,1.70
2018-04-12T17:24:48.613Z,0.73
2018-04-12T17:27:16.220Z,1.10
2018-04-12T17:29:43.794Z,0.63
2018-04-12T17:32:11.465Z,0.60
2018-04-12T17:34:39.057Z,1.40
2018-04-12T17:37:06.837Z,1.90
2018-04-12T17:39:35.189Z,0.50
2018-04-12T17:42:02.778Z,0.87
2018-04-12T17:44:31.144Z,0.50
2018-04-12T17:46:58.710Z,0.63
2018-04-12T17:49:27.053Z,0.50
2018-04-12T17:51:54.646Z,0.60
2018-04-12T17:54:23.040Z,0.70
2018-04-12T17:56:50.722Z,0.57
2018-04-12T17:59:18.297Z,0.90
2018-04-12T18:01:45.916Z,0.70
2018-04-12T18:04:14.450Z,0.70
2018-04-12T18:06:42.009Z,0.70
2018-04-12T18:09:09.596Z,0.80
2018-04-12T18:11:37.358Z,0.80
2018-04-12T18:14:04.941Z,0.70
2018-04-12T18:16:32.513Z,0.90
2018-04-12T18:19:00.112Z,0.93
2018-04-12T18:21:27.674Z,1.10
2018-04-12T18:23:55.270Z,1.40
2018-04-12T18:26:23.659Z,1.10
2018-04-12T18:28:51.277Z,1.17
2018-04-12T18:31:18.841Z,1.30
2018-04-12T18:33:46.647Z,1.60
2018-04-12T18:36:14.254Z,3.50
2018-04-12T18:38:42.049Z,2.97
2018-04-12T18:41:10.429Z,2.60
2018-04-12T18:43:38.012Z,2.00
2018-04-12T18:46:05.630Z,1.93
2018-04-12T18:48:33.202Z,2.10
2018-04-12T18:51:01.589Z,2.33
2018-04-12T18:53:29.939Z,2.23
2018-04-12T18:55:57.527Z,4.77
2018-04-12T18:58:25.141Z,8.10
2018-04-12T19:00:52.830Z,6.93
2018-04-12T19:03:21.390Z,9.00
2018-04-12T19:05:48.980Z,8.40
2018-04-12T19:08:17.377Z,8.30
2018-04-12T19:10:45.046Z,7.43
2018-04-12T19:13:12.667Z,8.80
2018-04-12T19:15:41.049Z,8.27
2018-04-12T19:18:09.442Z,7.70
2018-04-12T19:20:37.099Z,8.95
2018-04-12T19:23:05.440Z,7.83
2018-04-12T19:25:33.810Z,8.93
2018-04-12T19:28:01.461Z,7.43
2018-04-12T19:30:29.106Z,9.03
2018-04-12T19:32:56.698Z,8.23
2018-04-12T19:35:25.086Z,8.23
2018-04-12T19:37:52.658Z,8.67
2018-04-12T19:40:21.005Z,8.80
2018-04-12T19:42:48.738Z,7.87
2018-04-12T19:45:16.390Z,8.67
2018-04-12T19:47:44.002Z,9.07
2018-04-12T19:50:11.654Z,8.70
2018-04-12T19:52:39.365Z,8.63
2018-04-12T19:55:06.937Z,7.93
2018-04-12T19:57:34.666Z,8.37
2018-04-12T20:00:03.045Z,8.60
2018-04-12T20:02:32.173Z,8.63
2018-04-12T20:04:59.744Z,8.10
2018-04-12T20:07:27.346Z,7.30
2018-04-12T20:09:55.733Z,7.77
2018-04-12T20:12:24.143Z,8.10
2018-04-12T20:14:51.879Z,8.40
2018-04-12T20:17:19.562Z,35.60
2018-04-12T20:19:47.156Z,16.03
2018-04-12T20:22:15.527Z,8.33
2018-04-12T20:24:43.149Z,7.50
2018-04-12T20:27:10.759Z,8.13
2018-04-12T20:29:38.385Z,8.30
2018-04-12T20:32:05.998Z,8.73
2018-04-12T20:34:34.463Z,8.90
2018-04-12T20:37:02.031Z,8.17
2018-04-12T20:39:30.486Z,7.67
2018-04-12T20:41:58.053Z,8.30
2018-04-12T20:44:25.640Z,9.27
2018-04-12T20:46:54.146Z,9.47
2018-04-12T20:49:21.734Z,8.53
2018-04-12T20:51:49.364Z,8.03
2018-04-12T20:54:16.946Z,8.00
2018-04-12T20:56:44.548Z,8.50
2018-04-12T20:59:12.908Z,8.17
2018-04-12T21:01:40.514Z,8.77
2018-04-12T21:04:08.089Z,9.00
2018-04-12T21:06:35.837Z,10.00
2018-04-12T21:09:03.401Z,8.90
2018-04-12T21:11:31.033Z,8.70
2018-04-12T21:13:59.404Z,8.80
2018-04-12T21:16:27.797Z,8.30
2018-04-12T21:18:55.375Z,8.40
2018-04-12T21:21:22.946Z,9.43
2018-04-12T21:23:50.593Z,8.90
2018-04-12T21:26:18.212Z,9.03
2018-04-12T21:28:45.777Z,7.87
2018-04-12T21:31:14.121Z,8.87
2018-04-12T21:33:41.705Z,8.33
2018-04-12T21:36:10.029Z,8.03
2018-04-12T21:38:37.780Z,7.80
2018-04-12T21:41:05.345Z,7.17
2018-04-12T21:43:32.901Z,7.93
2018-04-12T21:46:00.503Z,7.93
2018-04-12T21:48:28.857Z,7.00
2018-04-12T21:50:56.449Z,8.03
2018-04-12T21:53:24.085Z,6.80
2018-04-12T21:55:51.665Z,7.37
2018-04-12T21:58:19.305Z,7.80
2018-04-12T22:00:46.906Z,8.03
2018-04-12T22:03:15.251Z,7.47
2018-04-12T22:05:44.392Z,8.07
2018-04-12T22:08:12.087Z,7.43
2018-04-12T22:10:39.661Z,8.10
2018-04-12T22:13:07.257Z,8.90
2018-04-12T22:15:35.618Z,7.97
2018-04-12T22:18:03.965Z,7.93
2018-04-12T22:20:31.529Z,8.40
2018-04-12T22:22:59.119Z,7.27
2018-04-12T22:25:27.451Z,8.00
2018-04-12T22:27:55.033Z,8.93
2018-04-12T22:30:22.589Z,8.30
2018-04-12T22:32:50.206Z,8.07
2018-04-12T22:35:17.825Z,8.63
2018-04-12T22:37:46.190Z,8.53
2018-04-12T22:40:14.522Z,7.80
2018-04-12T22:42:42.128Z,8.47
2018-04-12T22:45:09.842Z,8.67
2018-04-12T22:47:37.410Z,9.07
2018-04-12T22:50:05.108Z,8.27
2018-04-12T22:52:32.709Z,9.67
2018-04-12T22:55:00.434Z,8.90
2018-04-12T22:57:28.761Z,9.10
2018-04-12T22:59:56.476Z,8.57
2018-04-12T23:02:24.122Z,8.93
2018-04-12T23:04:51.697Z,8.63
2018-04-12T23:07:20.037Z,8.90
2018-04-12T23:09:47.613Z,9.00
2018-04-12T23:12:15.958Z,9.07
2018-04-12T23:14:43.525Z,9.70
2018-04-12T23:17:11.213Z,8.57
2018-04-12T23:19:38.768Z,9.10
2018-04-12T23:22:06.437Z,8.47
2018-04-12T23:24:34.099Z,8.17
2018-04-12T23:27:02.481Z,8.90
2018-04-12T23:29:30.852Z,9.43
2018-04-12T23:31:58.441Z,8.73
2018-04-12T23:34:26.010Z,8.20
2018-04-12T23:36:53.602Z,8.70
2018-04-12T23:39:21.190Z,8.13
2018-04-12T23:41:48.781Z,8.83
2018-04-12T23:44:16.354Z,8.87
2018-04-12T23:46:44.037Z,8.43
2018-04-12T23:49:11.629Z,8.37
2018-04-12T23:51:39.202Z,8.77
2018-04-12T23:54:07.611Z,8.23
2018-04-12T23:56:35.193Z,8.00
2018-04-12T23:59:02.795Z,8.17
